createdAt,value
2023-04-25T00:00:43.909Z,7.43
2023-04-25T00:03:09.749Z,6.97
2023-04-25T00:05:37.387Z,7.88
2023-04-25T00:08:04.257Z,6.70
2023-04-25T00:10:30.101Z,7.65
2023-04-25T00:12:55.855Z,7.53
2023-04-25T00:15:24.734Z,7.65
2023-04-25T00:17:53.085Z,8.07
2023-04-25T00:20:18.943Z,8.00
2023-04-25T00:22:44.709Z,7.60
2023-04-25T00:25:10.512Z,8.68
2023-04-25T00:27:36.966Z,8.27
2023-04-25T00:30:03.296Z,7.43
2023-04-25T00:32:29.138Z,6.80
2023-04-25T00:34:56.134Z,8.32
2023-04-25T00:37:22.375Z,7.30
2023-04-25T00:39:48.180Z,7.55
2023-04-25T00:42:14.094Z,6.85
2023-04-25T00:44:40.047Z,9.10
2023-04-25T00:47:07.216Z,7.75
2023-04-25T00:49:33.075Z,7.22
2023-04-25T00:51:59.378Z,7.68
2023-04-25T00:54:25.599Z,7.40
2023-04-25T00:56:51.492Z,7.65
2023-04-25T00:59:18.615Z,7.22
2023-04-25T01:01:45.434Z,7.72
2023-04-25T01:04:11.533Z,7.85
2023-04-25T01:06:37.424Z,8.05
2023-04-25T01:09:05.211Z,7.95
2023-04-25T01:11:31.326Z,8.23
2023-04-25T01:13:57.621Z,8.10
2023-04-25T01:16:24.248Z,7.22
2023-04-25T01:18:51.522Z,8.13
2023-04-25T01:21:17.618Z,7.65
2023-04-25T01:23:43.618Z,7.35
2023-04-25T01:26:10.856Z,7.20
2023-04-25T01:28:37.533Z,8.07
2023-04-25T01:31:04.324Z,7.50
2023-04-25T01:33:30.343Z,7.20
2023-04-25T01:35:56.176Z,7.82
2023-04-25T01:38:22.200Z,8.57
2023-04-25T01:40:51.112Z,8.77
2023-04-25T01:43:16.942Z,8.35
2023-04-25T01:45:43.077Z,8.55
2023-04-25T01:48:10.287Z,8.27
2023-04-25T01:50:37.349Z,9.38
2023-04-25T01:53:06.580Z,9.48
2023-04-25T01:55:32.442Z,8.48
2023-04-25T01:57:59.200Z,9.00
2023-04-25T02:00:25.050Z,8.48
2023-04-25T02:02:51.036Z,8.95
2023-04-25T02:05:17.672Z,9.40
2023-04-25T02:07:43.783Z,9.07
2023-04-25T02:10:10.107Z,8.32
2023-04-25T02:12:36.245Z,9.02
2023-04-25T02:15:02.478Z,9.40
2023-04-25T02:17:28.418Z,9.15
2023-04-25T02:19:54.169Z,9.23
2023-04-25T02:22:19.891Z,10.20
2023-04-25T02:24:46.524Z,9.98
2023-04-25T02:27:12.336Z,9.77
2023-04-25T02:29:38.523Z,9.73
2023-04-25T02:32:04.647Z,10.60
2023-04-25T02:34:30.556Z,10.80
2023-04-25T02:36:56.477Z,10.38
2023-04-25T02:39:22.522Z,10.32
2023-04-25T02:41:48.354Z,11.50
2023-04-25T02:44:14.110Z,11.95
2023-04-25T02:46:40.083Z,11.73
2023-04-25T02:49:06.790Z,11.40
2023-04-25T02:51:32.888Z,11.52
2023-04-25T02:53:58.935Z,11.50
2023-04-25T02:56:26.376Z,11.45
2023-04-25T02:58:53.367Z,12.32
2023-04-25T03:01:19.280Z,12.27
2023-04-25T03:03:45.335Z,12.68
2023-04-25T03:06:11.436Z,11.88
2023-04-25T03:08:37.210Z,13.15
2023-04-25T03:11:03.070Z,13.25
2023-04-25T03:13:30.153Z,13.68
2023-04-25T03:15:56.063Z,15.13
2023-04-25T03:18:21.824Z,13.90
2023-04-25T03:20:47.624Z,13.13
2023-04-25T03:23:13.455Z,15.15
2023-04-25T03:25:39.317Z,15.40
2023-04-25T03:28:05.315Z,14.88
2023-04-25T03:30:31.206Z,15.48
2023-04-25T03:32:57.066Z,15.25
2023-04-25T03:35:25.012Z,14.80
2023-04-25T03:37:51.704Z,14.32
2023-04-25T03:40:17.489Z,14.35
2023-04-25T03:42:45.063Z,14.20
2023-04-25T03:45:11.756Z,15.77
2023-04-25T03:47:37.697Z,13.55
2023-04-25T03:50:03.889Z,14.27
2023-04-25T03:52:29.689Z,14.43
2023-04-25T03:54:55.510Z,13.98
2023-04-25T03:57:21.283Z,12.38
2023-04-25T03:59:47.129Z,13.30
2023-04-25T04:02:13.072Z,12.85
2023-04-25T04:04:39.239Z,13.02
2023-04-25T04:07:05.252Z,12.95
2023-04-25T04:09:31.045Z,13.38
2023-04-25T04:11:57.000Z,14.52
2023-04-25T04:14:22.801Z,11.68
2023-04-25T04:16:48.625Z,11.50
2023-04-25T04:19:14.710Z,8.93
2023-04-25T04:21:40.671Z,8.85
2023-04-25T04:24:06.572Z,8.50
2023-04-25T04:26:34.638Z,7.70
2023-04-25T04:29:00.691Z,7.60
2023-04-25T04:31:26.499Z,7.45
2023-04-25T04:33:52.612Z,7.35
2023-04-25T04:36:23.251Z,6.85
2023-04-25T04:38:49.506Z,6.82
2023-04-25T04:41:15.306Z,6.78
2023-04-25T04:43:41.981Z,7.78
2023-04-25T04:46:07.823Z,6.70
2023-04-25T04:48:34.443Z,6.95
2023-04-25T04:51:00.812Z,6.57
2023-04-25T04:53:27.208Z,6.57
2023-04-25T04:55:53.424Z,8.30
2023-04-25T04:58:19.358Z,8.50
2023-04-25T05:00:45.681Z,8.77
2023-04-25T05:03:11.905Z,9.32
2023-04-25T05:05:40.292Z,8.48
2023-04-25T05:08:06.659Z,10.18
2023-04-25T05:10:32.549Z,10.40
2023-04-25T05:12:58.384Z,10.50
2023-04-25T05:15:24.215Z,11.38
2023-04-25T05:17:50.096Z,11.50
2023-04-25T05:20:16.087Z,11.80
2023-04-25T05:22:42.037Z,12.18
2023-04-25T05:25:09.021Z,12.23
2023-04-25T05:27:34.954Z,12.57
2023-04-25T05:30:00.798Z,11.85
2023-04-25T05:32:27.105Z,12.18
2023-04-25T05:34:53.137Z,12.65
2023-04-25T05:37:19.030Z,11.95
2023-04-25T05:39:44.851Z,10.13
2023-04-25T05:42:10.798Z,9.48
2023-04-25T05:44:36.562Z,7.88
2023-04-25T05:47:03.033Z,4.70
2023-04-25T05:49:28.899Z,5.13
2023-04-25T05:51:54.882Z,6.07
2023-04-25T05:54:20.780Z,4.32
2023-04-25T05:56:46.589Z,5.57
2023-04-25T05:59:12.430Z,5.15
2023-04-25T06:01:38.254Z,5.28
2023-04-25T06:04:04.636Z,5.22
2023-04-25T06:06:30.793Z,5.50
2023-04-25T06:08:56.581Z,5.15
2023-04-25T06:11:22.649Z,4.80
2023-04-25T06:13:48.733Z,5.28
2023-04-25T06:16:14.808Z,5.25
2023-04-25T06:18:40.838Z,5.35
2023-04-25T06:21:06.874Z,5.28
2023-04-25T06:23:32.674Z,4.63
2023-04-25T06:25:58.479Z,5.13
2023-04-25T06:28:24.739Z,4.65
2023-04-25T06:30:51.230Z,5.03
2023-04-25T06:33:17.030Z,5.68
2023-04-25T06:35:42.917Z,5.28
2023-04-25T06:38:08.859Z,4.90
2023-04-25T06:40:34.789Z,4.85
2023-04-25T06:43:00.621Z,4.93
2023-04-25T06:45:26.433Z,5.43
2023-04-25T06:47:52.275Z,5.60
2023-04-25T06:50:18.173Z,5.35
2023-04-25T06:52:44.005Z,5.07
2023-04-25T06:55:10.290Z,5.50
2023-04-25T06:57:36.147Z,4.45
2023-04-25T07:00:05.587Z,5.60
2023-04-25T07:02:31.572Z,5.72
2023-04-25T07:05:00.026Z,5.88
2023-04-25T07:07:26.573Z,5.60
2023-04-25T07:09:52.420Z,6.82
2023-04-25T07:12:18.235Z,5.50
2023-04-25T07:14:44.068Z,6.25
2023-04-25T07:17:10.123Z,5.85
2023-04-25T07:19:37.611Z,5.75
2023-04-25T07:22:03.369Z,6.15
2023-04-25T07:24:29.260Z,4.82
2023-04-25T07:26:54.990Z,5.25
2023-04-25T07:29:20.719Z,5.78
2023-04-25T07:31:46.563Z,5.53
2023-04-25T07:34:12.315Z,5.70
2023-04-25T07:36:38.135Z,4.57
2023-04-25T07:39:03.964Z,4.88
2023-04-25T07:41:29.889Z,4.85
2023-04-25T07:43:55.654Z,4.85
2023-04-25T07:46:21.505Z,4.38
2023-04-25T07:48:47.491Z,4.50
2023-04-25T07:51:13.330Z,4.20
2023-04-25T07:53:39.677Z,4.90
2023-04-25T07:56:05.829Z,4.70
2023-04-25T07:58:31.838Z,4.35
2023-04-25T08:00:57.679Z,4.97
2023-04-25T08:03:23.695Z,5.03
2023-04-25T08:05:49.781Z,4.88
2023-04-25T08:08:15.755Z,5.65
2023-04-25T08:10:42.275Z,5.35
2023-04-25T08:13:08.027Z,4.40
2023-04-25T08:15:35.824Z,5.35
2023-04-25T08:18:01.753Z,4.00
2023-04-25T08:20:27.910Z,5.22
2023-04-25T08:22:53.732Z,5.68
2023-04-25T08:25:19.579Z,4.80
2023-04-25T08:27:45.454Z,4.88
2023-04-25T08:30:11.688Z,4.85
2023-04-25T08:32:40.743Z,4.45
2023-04-25T08:35:07.165Z,5.35
2023-04-25T08:37:32.936Z,4.70
2023-04-25T08:39:58.968Z,4.93
2023-04-25T08:42:25.066Z,4.35
2023-04-25T08:44:53.307Z,4.28
2023-04-25T08:47:22.813Z,5.03
2023-04-25T08:49:50.487Z,3.22
2023-04-25T08:52:22.818Z,4.55
2023-04-25T08:54:49.859Z,3.30
2023-04-25T08:57:15.766Z,3.42
2023-04-25T08:59:45.841Z,3.47
2023-04-25T09:02:16.027Z,3.78
2023-04-25T09:04:44.249Z,3.30
2023-04-25T09:07:10.225Z,4.57
2023-04-25T09:09:36.505Z,3.83
2023-04-25T09:12:02.346Z,3.92
2023-04-25T09:14:28.371Z,4.20
2023-04-25T09:16:57.356Z,4.47
2023-04-25T09:19:39.633Z,3.20
2023-04-25T09:22:07.317Z,2.95
2023-04-25T09:24:35.464Z,3.90
2023-04-25T09:27:13.582Z,3.58
2023-04-25T09:29:41.302Z,3.65
2023-04-25T09:32:19.380Z,5.07
2023-04-25T09:34:50.845Z,4.72
2023-04-25T09:37:21.852Z,3.83
2023-04-25T09:39:53.295Z,4.88
2023-04-25T09:42:22.657Z,4.30
2023-04-25T09:44:48.464Z,4.20
2023-04-25T09:47:16.733Z,2.95
2023-04-25T09:49:43.387Z,2.70
2023-04-25T09:52:19.894Z,4.63
2023-04-25T09:54:48.469Z,3.97
2023-04-25T09:57:15.535Z,11.50
2023-04-25T09:59:49.592Z,4.25
2023-04-25T10:02:20.786Z,4.65
2023-04-25T10:04:51.763Z,3.33
2023-04-25T10:07:19.232Z,3.50
2023-04-25T10:09:48.560Z,2.88
2023-04-25T10:12:15.053Z,2.33
2023-04-25T10:14:41.426Z,2.53
2023-04-25T10:17:09.137Z,2.63
2023-04-25T10:19:35.204Z,3.30
2023-04-25T10:22:06.280Z,2.83
2023-04-25T10:24:32.557Z,2.97
2023-04-25T10:26:59.107Z,2.78
2023-04-25T10:29:26.598Z,1.60
2023-04-25T10:31:52.976Z,1.70
2023-04-25T10:34:19.787Z,1.83
2023-04-25T10:36:52.648Z,1.85
2023-04-25T10:39:27.573Z,1.70
2023-04-25T10:41:58.348Z,2.15
2023-04-25T10:44:28.886Z,1.60
2023-04-25T10:46:59.330Z,1.60
2023-04-25T10:49:42.598Z,1.77
2023-04-25T10:52:18.936Z,2.03
2023-04-25T10:54:56.149Z,1.85
2023-04-25T10:57:46.507Z,1.55
2023-04-25T11:00:16.249Z,1.70
2023-04-25T11:02:52.751Z,2.25
2023-04-25T11:05:43.995Z,2.35
2023-04-25T11:08:34.296Z,1.85
2023-04-25T11:11:00.237Z,2.95
2023-04-25T11:13:30.455Z,2.03
2023-04-25T11:16:07.078Z,1.70
2023-04-25T11:18:41.796Z,1.90
2023-04-25T11:21:07.616Z,1.80
2023-04-25T11:23:34.659Z,2.00
2023-04-25T11:26:01.721Z,1.58
2023-04-25T11:28:27.868Z,2.65
2023-04-25T11:30:54.270Z,1.85
2023-04-25T11:33:28.841Z,1.67
2023-04-25T11:35:58.123Z,1.77
2023-04-25T11:38:27.341Z,2.35
2023-04-25T11:40:54.875Z,1.77
2023-04-25T11:43:21.921Z,2.40
2023-04-25T11:45:52.557Z,2.05
2023-04-25T11:48:19.724Z,2.28
2023-04-25T11:50:47.696Z,2.53
2023-04-25T11:53:13.745Z,1.98
2023-04-25T11:55:40.401Z,2.22
2023-04-25T11:58:06.728Z,1.65
2023-04-25T12:00:32.587Z,1.70
2023-04-25T12:02:59.013Z,1.58
2023-04-25T12:05:32.821Z,1.65
2023-04-25T12:08:12.728Z,1.42
2023-04-25T12:10:43.339Z,1.73
2023-04-25T12:13:20.198Z,2.05
2023-04-25T12:15:46.251Z,1.90
2023-04-25T12:18:12.161Z,1.77
2023-04-25T12:20:38.022Z,2.28
2023-04-25T12:23:08.120Z,2.15
2023-04-25T12:25:42.263Z,1.90
2023-04-25T12:28:14.998Z,2.53
2023-04-25T12:31:02.217Z,2.47
2023-04-25T12:33:30.624Z,1.95
2023-04-25T12:35:57.852Z,2.58
2023-04-25T12:38:31.127Z,2.35
2023-04-25T12:40:57.977Z,2.03
2023-04-25T12:43:24.130Z,1.85
2023-04-25T12:45:51.781Z,2.10
2023-04-25T12:48:18.383Z,1.92
2023-04-25T12:50:44.432Z,1.60
2023-04-25T12:53:11.741Z,1.48
2023-04-25T12:55:37.774Z,1.35
2023-04-25T12:58:03.626Z,1.60
2023-04-25T13:00:30.335Z,1.73
2023-04-25T13:02:56.434Z,1.65
2023-04-25T13:05:22.515Z,1.50
2023-04-25T13:07:48.317Z,2.60
2023-04-25T13:10:14.177Z,2.03
2023-04-25T13:12:40.038Z,1.80
2023-04-25T13:15:07.236Z,2.33
2023-04-25T13:17:33.095Z,2.08
2023-04-25T13:19:58.899Z,1.50
2023-04-25T13:22:24.922Z,1.42
2023-04-25T13:24:50.778Z,1.70
2023-04-25T13:27:16.667Z,1.88
2023-04-25T13:29:42.517Z,2.28
2023-04-25T13:32:09.406Z,1.58
2023-04-25T13:34:35.263Z,1.85
2023-04-25T13:37:01.116Z,2.38
2023-04-25T13:39:26.950Z,2.03
2023-04-25T13:41:52.797Z,4.05
2023-04-25T13:44:18.735Z,2.03
2023-04-25T13:46:47.451Z,2.35
2023-04-25T13:49:13.961Z,2.10
2023-04-25T13:51:40.627Z,2.80
2023-04-25T13:54:06.503Z,3.72
2023-04-25T13:56:32.348Z,2.55
2023-04-25T13:58:58.406Z,2.90
2023-04-25T14:01:24.268Z,2.55
2023-04-25T14:03:50.549Z,4.00
2023-04-25T14:06:22.871Z,2.40
2023-04-25T14:08:50.215Z,1.80
2023-04-25T14:11:18.178Z,1.95
2023-04-25T14:13:45.078Z,1.73
2023-04-25T14:16:10.995Z,2.30
2023-04-25T14:18:36.921Z,2.17
2023-04-25T14:21:02.923Z,2.00
2023-04-25T14:23:28.852Z,1.77
2023-04-25T14:25:54.756Z,1.73
2023-04-25T14:28:20.655Z,2.03
2023-04-25T14:30:46.474Z,2.38
2023-04-25T14:33:12.332Z,2.30
2023-04-25T14:35:38.290Z,1.95
2023-04-25T14:38:04.144Z,3.45
2023-04-25T14:40:30.137Z,2.90
2023-04-25T14:42:55.934Z,2.22
2023-04-25T14:45:21.693Z,2.95
2023-04-25T14:47:47.574Z,2.15
2023-04-25T14:50:13.472Z,2.22
2023-04-25T14:52:39.482Z,1.55
2023-04-25T14:55:05.563Z,1.75
2023-04-25T14:57:33.067Z,3.28
2023-04-25T14:59:58.998Z,2.90
2023-04-25T15:02:24.962Z,3.00
2023-04-25T15:04:51.104Z,1.90
2023-04-25T15:07:18.532Z,2.28
2023-04-25T15:09:44.631Z,1.52
2023-04-25T15:12:10.998Z,1.52
2023-04-25T15:14:36.909Z,1.50
2023-04-25T15:17:02.801Z,4.65
2023-04-25T15:19:28.612Z,1.60
2023-04-25T15:21:54.922Z,1.48
2023-04-25T15:24:21.714Z,1.42
2023-04-25T15:26:47.899Z,1.90
2023-04-25T15:29:13.799Z,1.65
2023-04-25T15:31:39.610Z,1.23
2023-04-25T15:34:05.656Z,1.58
2023-04-25T15:36:31.776Z,1.40
2023-04-25T15:38:57.668Z,1.55
2023-04-25T15:41:24.831Z,1.30
2023-04-25T15:43:52.383Z,1.75
2023-04-25T15:46:18.462Z,1.17
2023-04-25T15:48:44.329Z,1.38
2023-04-25T15:51:10.353Z,1.77
2023-04-25T15:53:36.619Z,1.35
2023-04-25T15:56:03.928Z,1.08
2023-04-25T15:58:29.904Z,1.40
2023-04-25T16:00:56.798Z,1.30
2023-04-25T16:03:23.210Z,1.20
2023-04-25T16:05:49.757Z,1.42
2023-04-25T16:08:16.002Z,1.70
2023-04-25T16:10:42.280Z,3.20
2023-04-25T16:13:08.161Z,2.85
2023-04-25T16:15:35.476Z,3.17
2023-04-25T16:18:01.817Z,1.92
2023-04-25T16:20:27.780Z,1.92
2023-04-25T16:22:53.649Z,1.70
2023-04-25T16:25:21.362Z,2.78
2023-04-25T16:27:47.280Z,2.25
2023-04-25T16:30:13.538Z,1.90
2023-04-25T16:32:42.547Z,3.00
2023-04-25T16:35:10.282Z,3.42
2023-04-25T16:37:36.259Z,2.35
2023-04-25T16:40:02.275Z,4.82
2023-04-25T16:42:28.097Z,2.63
2023-04-25T16:44:53.901Z,2.50
2023-04-25T16:47:20.521Z,2.25
2023-04-25T16:49:46.619Z,1.73
2023-04-25T16:52:12.841Z,2.10
2023-04-25T16:54:40.060Z,1.70
2023-04-25T16:57:09.641Z,2.30
2023-04-25T16:59:35.444Z,2.20
2023-04-25T17:02:01.782Z,1.85
2023-04-25T17:04:28.087Z,1.95
2023-04-25T17:06:53.983Z,2.53
2023-04-25T17:09:20.745Z,2.13
2023-04-25T17:11:47.668Z,1.60
2023-04-25T17:14:13.527Z,1.70
2023-04-25T17:16:39.397Z,2.83
2023-04-25T17:19:05.577Z,2.55
2023-04-25T17:21:32.341Z,1.90
2023-04-25T17:23:58.615Z,1.60
2023-04-25T17:26:25.761Z,2.17
2023-04-25T17:28:53.003Z,2.30
2023-04-25T17:31:20.996Z,2.53
2023-04-25T17:33:47.759Z,2.35
2023-04-25T17:36:14.325Z,1.95
2023-04-25T17:38:40.107Z,1.92
2023-04-25T17:41:05.945Z,2.28
2023-04-25T17:43:32.426Z,2.47
2023-04-25T17:45:58.815Z,1.73
2023-04-25T17:48:25.998Z,1.45
2023-04-25T17:50:51.879Z,2.28
2023-04-25T17:53:18.001Z,1.60
2023-04-25T17:55:44.511Z,1.80
2023-04-25T17:58:10.730Z,1.70
2023-04-25T18:00:37.987Z,1.83
2023-04-25T18:03:04.089Z,2.28
2023-04-25T18:05:31.220Z,1.65
2023-04-25T18:07:57.316Z,1.65
2023-04-25T18:10:23.230Z,2.13
2023-04-25T18:12:50.016Z,1.95
2023-04-25T18:15:16.019Z,2.00
2023-04-25T18:17:42.267Z,1.85
2023-04-25T18:20:15.013Z,2.33
2023-04-25T18:22:42.375Z,2.00
2023-04-25T18:25:12.988Z,1.90
2023-04-25T18:27:40.336Z,2.00
2023-04-25T18:30:08.690Z,1.80
2023-04-25T18:32:34.863Z,2.10
2023-04-25T18:35:00.823Z,1.95
2023-04-25T18:37:27.651Z,2.13
2023-04-25T18:39:53.812Z,1.83
2023-04-25T18:42:20.036Z,1.65
2023-04-25T18:44:46.253Z,2.33
2023-04-25T18:47:17.840Z,1.90
2023-04-25T18:49:44.522Z,1.52
2023-04-25T18:52:12.162Z,1.83
2023-04-25T18:54:38.237Z,2.92
2023-04-25T18:57:05.363Z,1.83
2023-04-25T18:59:32.331Z,2.50
2023-04-25T19:02:00.969Z,2.42
2023-04-25T19:04:28.050Z,3.10
2023-04-25T19:06:54.241Z,2.45
2023-04-25T19:09:20.124Z,2.50
2023-04-25T19:11:46.188Z,2.75
2023-04-25T19:14:13.669Z,2.80
2023-04-25T19:16:39.959Z,3.13
2023-04-25T19:19:06.930Z,2.83
2023-04-25T19:21:32.816Z,3.33
2023-04-25T19:24:00.622Z,2.05
2023-04-25T19:26:26.719Z,2.42
2023-04-25T19:29:03.711Z,2.90
2023-04-25T19:31:30.068Z,2.22
2023-04-25T19:33:56.326Z,1.88
2023-04-25T19:36:23.994Z,2.03
2023-04-25T19:38:50.422Z,1.92
2023-04-25T19:41:17.425Z,1.80
2023-04-25T19:43:43.352Z,1.48
2023-04-25T19:46:09.688Z,1.42
2023-04-25T19:48:35.649Z,1.55
2023-04-25T19:51:01.650Z,1.90
2023-04-25T19:53:27.599Z,1.88
2023-04-25T19:55:53.434Z,2.03
2023-04-25T19:58:19.259Z,2.10
2023-04-25T20:00:45.423Z,2.13
2023-04-25T20:03:11.477Z,2.38
2023-04-25T20:05:37.378Z,2.33
2023-04-25T20:08:03.930Z,1.65
2023-04-25T20:10:29.852Z,3.63
2023-04-25T20:12:55.647Z,2.70
2023-04-25T20:15:21.587Z,3.40
2023-04-25T20:17:47.905Z,1.70
2023-04-25T20:20:13.713Z,2.30
2023-04-25T20:22:39.664Z,2.33
2023-04-25T20:25:08.006Z,2.45
2023-04-25T20:27:33.901Z,5.13
2023-04-25T20:30:04.048Z,3.90
2023-04-25T20:32:33.563Z,2.47
2023-04-25T20:35:04.375Z,2.92
2023-04-25T20:37:33.888Z,3.03
2023-04-25T20:40:01.066Z,2.45
2023-04-25T20:42:27.188Z,2.22
2023-04-25T20:44:53.838Z,2.00
2023-04-25T20:47:19.958Z,2.53
2023-04-25T20:49:46.232Z,1.95
2023-04-25T20:52:12.125Z,2.15
2023-04-25T20:54:37.989Z,2.22
2023-04-25T20:57:04.567Z,2.28
2023-04-25T20:59:30.357Z,2.10
2023-04-25T21:01:56.310Z,2.97
2023-04-25T21:04:22.825Z,2.30
2023-04-25T21:06:49.714Z,2.45
2023-04-25T21:09:15.868Z,2.25
2023-04-25T21:11:41.756Z,2.05
2023-04-25T21:14:08.007Z,2.30
2023-04-25T21:16:35.153Z,2.20
2023-04-25T21:19:01.667Z,2.08
2023-04-25T21:21:28.068Z,2.58
2023-04-25T21:23:54.666Z,2.80
2023-04-25T21:26:21.429Z,2.53
2023-04-25T21:28:47.563Z,2.40
2023-04-25T21:31:14.224Z,2.75
2023-04-25T21:33:40.953Z,3.10
2023-04-25T21:36:07.424Z,2.67
2023-04-25T21:38:33.276Z,2.75
2023-04-25T21:40:59.132Z,2.30
2023-04-25T21:43:24.911Z,2.75
2023-04-25T21:46:11.092Z,3.08
2023-04-25T21:48:37.297Z,2.88
2023-04-25T21:51:03.510Z,2.90
2023-04-25T21:53:29.329Z,3.03
2023-04-25T21:55:58.246Z,3.15
2023-04-25T21:58:24.083Z,2.67
2023-04-25T22:00:50.172Z,3.72
2023-04-25T22:03:16.471Z,3.55
2023-04-25T22:05:43.525Z,3.05
2023-04-25T22:08:09.691Z,2.08
2023-04-25T22:10:35.475Z,2.85
2023-04-25T22:13:01.281Z,2.42
2023-04-25T22:15:28.845Z,2.55
2023-04-25T22:17:54.697Z,3.90
2023-04-25T22:20:25.162Z,4.65
2023-04-25T22:22:51.812Z,2.95
2023-04-25T22:25:18.672Z,3.15
2023-04-25T22:27:44.462Z,2.50
2023-04-25T22:30:14.395Z,2.80
2023-04-25T22:32:40.927Z,3.13
2023-04-25T22:35:08.209Z,2.95
2023-04-25T22:37:35.192Z,2.33
2023-04-25T22:40:08.377Z,2.83
2023-04-25T22:42:41.635Z,2.40
2023-04-25T22:45:08.424Z,3.17
2023-04-25T22:47:38.245Z,2.72
2023-04-25T22:50:07.694Z,2.65
2023-04-25T22:52:34.103Z,2.95
2023-04-25T22:55:03.956Z,2.35
2023-04-25T22:57:29.992Z,2.53
2023-04-25T22:59:56.104Z,2.97
2023-04-25T23:02:22.491Z,2.95
2023-04-25T23:04:49.692Z,2.53
2023-04-25T23:07:17.801Z,2.83
2023-04-25T23:09:44.405Z,2.50
2023-04-25T23:12:10.526Z,3.00
2023-04-25T23:14:36.348Z,2.75
2023-04-25T23:17:02.185Z,2.22
2023-04-25T23:19:28.954Z,3.05
2023-04-25T23:21:54.814Z,2.67
2023-04-25T23:24:20.668Z,2.50
2023-04-25T23:26:46.496Z,3.13
2023-04-25T23:29:12.340Z,3.15
2023-04-25T23:31:38.616Z,5.47
2023-04-25T23:34:04.460Z,4.50
2023-04-25T23:36:30.331Z,8.00
2023-04-25T23:38:56.376Z,10.45
2023-04-25T23:41:22.369Z,10.65
2023-04-25T23:43:48.357Z,10.35
2023-04-25T23:46:14.143Z,7.30
2023-04-25T23:48:40.666Z,5.70
2023-04-25T23:51:06.478Z,4.05
2023-04-25T23:53:32.445Z,4.00
2023-04-25T23:55:58.322Z,3.78
2023-04-25T23:58:24.206Z,3.42
